Time;durP1;ratioP1;P1;durP2;ratioP2;P2;SDS_P1;SDS_P2;PMS_P1;PMS_P2;Temp;Humidity;BMP_temperature;BMP_pressure;BME280_temperature;BME280_humidity;BME280_pressure;Samples;Min_cycle;Max_cycle;Signal;HPM_P1;HPM_P2
2024/03/10 00:00:24;;;;;;;1.63;1.50;;;;;;;;;;2101116;28;20039;-75
2024/03/10 00:01:43;;;;;;;2.25;1.90;;;;;;;;;;2105310;28;20028;-77
2024/03/10 00:03:05;;;;;;;2.15;1.52;;;;;;;;;;2104994;28;20060;-74
2024/03/10 00:04:24;;;;;;;2.20;1.58;;;;;;;;;;2104305;28;20020;-74
2024/03/10 00:05:43;;;;;;;1.45;1.35;;;;;;;;;;2105002;28;20028;-75
2024/03/10 00:07:02;;;;;;;4.30;1.50;;;;;;;;;;2106110;28;20031;-74
2024/03/10 00:08:21;;;;;;;2.33;1.90;;;;;;;;;;2095339;28;20025;-74
2024/03/10 00:09:40;;;;;;;1.67;1.50;;;;;;;;;;2100495;28;20427;-74
2024/03/10 00:10:59;;;;;;;2.35;1.50;;;;;;;;;;2096220;28;20028;-76
2024/03/10 00:12:18;;;;;;;1.85;1.60;;;;;;;;;;2096662;28;20476;-75
2024/03/10 00:13:37;;;;;;;1.40;1.30;;;;;;;;;;2095402;28;20502;-74
2024/03/10 00:14:57;;;;;;;1.92;1.65;;;;;;;;;;2100522;28;20024;-75
2024/03/10 00:16:16;;;;;;;1.70;1.60;;;;;;;;;;2095742;28;20120;-74
2024/03/10 00:17:37;;;;;;;1.85;1.40;;;;;;;;;;2100971;28;20024;-75
2024/03/10 00:18:58;;;;;;;2.63;1.50;;;;;;;;;;2096469;28;20020;-75
2024/03/10 00:20:19;;;;;;;1.67;1.58;;;;;;;;;;2093415;28;20021;-75
2024/03/10 00:21:39;;;;;;;4.05;2.00;;;;;;;;;;2101115;28;20032;-74
2024/03/10 00:22:58;;;;;;;1.77;1.60;;;;;;;;;;2106220;28;20040;-74
2024/03/10 00:24:20;;;;;;;2.13;1.75;;;;;;;;;;2103559;28;20028;-74
2024/03/10 00:25:38;;;;;;;1.85;1.70;;;;;;;;;;2102924;28;20024;-75
2024/03/10 00:26:57;;;;;;;2.00;1.50;;;;;;;;;;2094221;28;20020;-74
2024/03/10 00:28:16;;;;;;;1.67;1.58;;;;;;;;;;2101155;28;20036;-74
2024/03/10 00:29:37;;;;;;;4.93;1.90;;;;;;;;;;2096816;28;20013;-75
2024/03/10 00:30:56;;;;;;;1.98;1.77;;;;;;;;;;2102074;28;20024;-75
2024/03/10 00:32:15;;;;;;;2.28;1.75;;;;;;;;;;2104166;28;20106;-74
2024/03/10 00:33:34;;;;;;;2.58;1.58;;;;;;;;;;2105331;28;20032;-74
2024/03/10 00:34:53;;;;;;;4.13;1.60;;;;;;;;;;2095679;28;20115;-74
2024/03/10 00:36:12;;;;;;;3.13;2.15;;;;;;;;;;2101310;28;20402;-74
2024/03/10 00:37:32;;;;;;;1.80;1.70;;;;;;;;;;2104653;28;20017;-74
2024/03/10 00:38:51;;;;;;;2.45;1.85;;;;;;;;;;2101437;28;20032;-75
2024/03/10 00:40:10;;;;;;;2.00;1.80;;;;;;;;;;2104847;28;20475;-74
2024/03/10 00:41:29;;;;;;;1.90;1.80;;;;;;;;;;2104462;28;20372;-74
2024/03/10 00:42:48;;;;;;;2.53;1.95;;;;;;;;;;2104018;28;20029;-75
2024/03/10 00:44:08;;;;;;;2.00;1.80;;;;;;;;;;2105631;28;20036;-73
2024/03/10 00:45:27;;;;;;;2.65;1.63;;;;;;;;;;2094880;28;20032;-74
2024/03/10 00:46:47;;;;;;;1.65;1.55;;;;;;;;;;2101124;28;20118;-74
2024/03/10 00:48:06;;;;;;;2.50;1.80;;;;;;;;;;2103914;28;20481;-75
2024/03/10 00:49:25;;;;;;;1.73;1.60;;;;;;;;;;2104625;28;20120;-75
2024/03/10 00:50:46;;;;;;;3.22;1.60;;;;;;;;;;2096143;28;20021;-76
2024/03/10 00:52:09;;;;;;;2.70;1.90;;;;;;;;;;2101599;28;20060;-74
2024/03/10 00:53:28;;;;;;;2.90;1.83;;;;;;;;;;2103661;28;20413;-73
2024/03/10 00:54:47;;;;;;;3.20;1.70;;;;;;;;;;2105041;28;20581;-74
2024/03/10 00:56:06;;;;;;;1.85;1.75;;;;;;;;;;2095677;28;20517;-74
2024/03/10 00:57:25;;;;;;;1.95;1.75;;;;;;;;;;2096463;28;20032;-75
2024/03/10 00:58:45;;;;;;;2.40;2.20;;;;;;;;;;2101499;28;20455;-74
2024/03/10 01:00:07;;;;;;;1.48;1.40;;;;;;;;;;2095670;28;20036;-74
2024/03/10 01:01:25;;;;;;;2.10;1.90;;;;;;;;;;2092838;28;20063;-74
2024/03/10 01:02:48;;;;;;;1.67;1.58;;;;;;;;;;2098848;28;20071;-74
2024/03/10 01:04:08;;;;;;;2.35;1.90;;;;;;;;;;2092504;28;20028;-75
2024/03/10 01:05:26;;;;;;;1.70;1.60;;;;;;;;;;2091583;28;20028;-75
2024/03/10 01:06:45;;;;;;;1.77;1.67;;;;;;;;;;2101780;28;20053;-75
2024/03/10 01:08:05;;;;;;;3.25;1.52;;;;;;;;;;2103700;28;20024;-74
2024/03/10 01:09:24;;;;;;;1.98;1.80;;;;;;;;;;2095990;28;20028;-74
2024/03/10 01:10:44;;;;;;;2.08;1.88;;;;;;;;;;2101501;28;20469;-74
2024/03/10 01:12:03;;;;;;;2.03;1.90;;;;;;;;;;2093633;28;20044;-75
2024/03/10 01:13:22;;;;;;;1.65;1.55;;;;;;;;;;2100062;28;20099;-75
2024/03/10 01:14:42;;;;;;;2.00;1.77;;;;;;;;;;2105471;28;20012;-73
2024/03/10 01:16:03;;;;;;;3.05;2.03;;;;;;;;;;2104283;28;20091;-74
2024/03/10 01:17:22;;;;;;;1.70;1.60;;;;;;;;;;2105638;28;20024;-74
2024/03/10 01:18:41;;;;;;;2.75;2.00;;;;;;;;;;2104665;28;20032;-75
2024/03/10 01:20:01;;;;;;;2.80;1.67;;;;;;;;;;2106333;28;20036;-74
2024/03/10 01:21:20;;;;;;;1.67;1.58;;;;;;;;;;2096336;28;20028;-74
2024/03/10 01:22:39;;;;;;;1.70;1.60;;;;;;;;;;2097354;28;20561;-75
2024/03/10 01:23:58;;;;;;;1.90;1.73;;;;;;;;;;2103136;28;20393;-75
2024/03/10 01:25:18;;;;;;;1.92;1.80;;;;;;;;;;2105501;28;20431;-74
2024/03/10 01:26:36;;;;;;;1.88;1.77;;;;;;;;;;2106472;28;20071;-74
2024/03/10 01:27:55;;;;;;;4.30;1.90;;;;;;;;;;2097818;28;20029;-75
2024/03/10 01:29:16;;;;;;;2.00;1.70;;;;;;;;;;2103479;28;20028;-74
2024/03/10 01:30:35;;;;;;;1.88;1.60;;;;;;;;;;2106982;28;20036;-75
2024/03/10 01:31:55;;;;;;;2.00;1.90;;;;;;;;;;2106631;28;20445;-75
2024/03/10 01:33:14;;;;;;;1.83;1.73;;;;;;;;;;2097326;28;20025;-73
2024/03/10 01:34:34;;;;;;;1.98;1.88;;;;;;;;;;2102974;28;20032;-74
2024/03/10 01:35:53;;;;;;;1.70;1.60;;;;;;;;;;2107069;28;20106;-75
2024/03/10 01:37:12;;;;;;;2.60;1.88;;;;;;;;;;2107262;28;20024;-80
2024/03/10 01:38:31;;;;;;;2.33;2.13;;;;;;;;;;2107915;28;20028;-80
2024/03/10 01:39:50;;;;;;;1.95;1.85;;;;;;;;;;2098146;28;20037;-80
2024/03/10 01:41:11;;;;;;;2.10;1.90;;;;;;;;;;2095608;28;20385;-80
2024/03/10 01:42:30;;;;;;;2.03;1.90;;;;;;;;;;2103001;28;20016;-80
2024/03/10 01:43:50;;;;;;;1.60;1.50;;;;;;;;;;2097668;28;20033;-80
2024/03/10 01:45:09;;;;;;;2.28;2.08;;;;;;;;;;2102944;28;20461;-80
2024/03/10 01:46:29;;;;;;;2.17;1.92;;;;;;;;;;2107010;28;20481;-81
2024/03/10 01:47:49;;;;;;;1.88;1.70;;;;;;;;;;2106364;28;20024;-80
2024/03/10 01:49:09;;;;;;;1.75;1.60;;;;;;;;;;2106821;28;20059;-81
2024/03/10 01:50:28;;;;;;;2.08;1.98;;;;;;;;;;2107005;28;20107;-81
2024/03/10 01:51:47;;;;;;;1.80;1.70;;;;;;;;;;2107239;28;20502;-81
2024/03/10 01:53:07;;;;;;;2.90;1.77;;;;;;;;;;2105554;28;20024;-80
2024/03/10 01:54:28;;;;;;;2.10;1.67;;;;;;;;;;2106016;28;20489;-80
2024/03/10 01:55:47;;;;;;;2.88;1.60;;;;;;;;;;2106917;28;20481;-81
2024/03/10 01:57:06;;;;;;;2.67;2.00;;;;;;;;;;2106832;28;20028;-80
2024/03/10 01:58:27;;;;;;;1.98;1.88;;;;;;;;;;2106796;28;20028;-81
2024/03/10 01:59:47;;;;;;;1.80;1.70;;;;;;;;;;2105780;28;20032;-81
2024/03/10 02:01:09;;;;;;;2.20;1.50;;;;;;;;;;2106028;28;20043;-81
2024/03/10 02:02:28;;;;;;;1.63;1.52;;;;;;;;;;2105553;28;20024;-80
2024/03/10 02:03:49;;;;;;;1.80;1.70;;;;;;;;;;2106969;28;20100;-80
2024/03/10 02:05:09;;;;;;;1.77;1.65;;;;;;;;;;2106655;28;20036;-80
2024/03/10 02:06:28;;;;;;;1.70;1.60;;;;;;;;;;2097462;28;20033;-80
2024/03/10 02:07:47;;;;;;;3.80;1.52;;;;;;;;;;2103204;28;20028;-80
2024/03/10 02:09:06;;;;;;;1.58;1.48;;;;;;;;;;2097764;28;20040;-80
2024/03/10 02:10:26;;;;;;;3.67;1.77;;;;;;;;;;2093212;28;20046;-80
2024/03/10 02:11:45;;;;;;;2.20;2.00;;;;;;;;;;2102966;28;20092;-80
2024/03/10 02:13:04;;;;;;;3.42;1.75;;;;;;;;;;2105615;28;20107;-79
2024/03/10 02:14:25;;;;;;;1.75;1.63;;;;;;;;;;2107567;28;20115;-80
2024/03/10 02:15:57;;;;;;;1.83;1.73;;;;;;;;;;2104016;28;20035;-80
2024/03/10 02:17:16;;;;;;;3.58;1.95;;;;;;;;;;2105830;28;20465;-80
2024/03/10 02:18:35;;;;;;;1.80;1.60;;;;;;;;;;2105182;28;20024;-78
2024/03/10 02:19:57;;;;;;;1.77;1.67;;;;;;;;;;2104555;28;20060;-80
2024/03/10 02:21:21;;;;;;;2.03;1.90;;;;;;;;;;2104682;28;20028;-80
2024/03/10 02:22:41;;;;;;;2.00;1.77;;;;;;;;;;2107538;28;20024;-81
2024/03/10 02:24:00;;;;;;;2.17;1.80;;;;;;;;;;2103764;28;20027;-80
2024/03/10 02:25:23;;;;;;;1.52;1.42;;;;;;;;;;2106670;28;20032;-81
2024/03/10 02:26:46;;;;;;;2.22;1.80;;;;;;;;;;2096465;28;20072;-80
2024/03/10 02:28:09;;;;;;;1.98;1.58;;;;;;;;;;2101016;28;20036;-79
2024/03/10 02:29:30;;;;;;;1.70;1.58;;;;;;;;;;2103180;28;20024;-80
2024/03/10 02:30:57;;;;;;;2.03;1.40;;;;;;;;;;2096742;28;20025;-80
2024/03/10 02:47:13;;;;;;;2.95;1.67;;;;;;;;;;2106221;28;20036;-83
2024/03/10 02:48:32;;;;;;;2.83;1.58;;;;;;;;;;2105995;28;20488;-83
2024/03/10 02:49:51;;;;;;;2.00;1.90;;;;;;;;;;2104867;28;20123;-82
2024/03/10 02:51:10;;;;;;;3.70;1.90;;;;;;;;;;2106618;28;20064;-83
2024/03/10 02:52:29;;;;;;;3.08;1.90;;;;;;;;;;2106012;28;20028;-82
2024/03/10 02:53:48;;;;;;;2.72;1.75;;;;;;;;;;2106998;28;20044;-82
2024/03/10 02:55:08;;;;;;;2.10;1.50;;;;;;;;;;2103914;28;20479;-82
2024/03/10 02:56:28;;;;;;;3.05;1.77;;;;;;;;;;2106866;28;20070;-82
2024/03/10 02:57:47;;;;;;;1.45;1.38;;;;;;;;;;2103669;28;20028;-82
2024/03/10 02:59:06;;;;;;;2.17;1.67;;;;;;;;;;2106913;28;20184;-82
2024/03/10 03:00:25;;;;;;;1.85;1.75;;;;;;;;;;2096496;28;20147;-82
2024/03/10 03:01:44;;;;;;;10.45;2.40;;;;;;;;;;2101380;28;20095;-82
2024/03/10 03:03:04;;;;;;;1.60;1.50;;;;;;;;;;2105349;28;20028;-81
2024/03/10 03:04:26;;;;;;;1.90;1.75;;;;;;;;;;2106109;28;20023;-79
2024/03/10 03:05:45;;;;;;;2.87;1.50;;;;;;;;;;2105434;28;20028;-81
2024/03/10 03:07:04;;;;;;;1.63;1.52;;;;;;;;;;2102405;28;20343;-79
2024/03/10 03:08:24;;;;;;;3.63;1.98;;;;;;;;;;2103329;28;20028;-80
2024/03/10 03:09:46;;;;;;;2.08;1.65;;;;;;;;;;2105675;28;20055;-81
2024/03/10 03:11:06;;;;;;;3.35;2.15;;;;;;;;;;2105620;28;20070;-78
2024/03/10 03:12:25;;;;;;;2.45;2.20;;;;;;;;;;2106587;28;20028;-81
2024/03/10 03:13:45;;;;;;;2.58;2.38;;;;;;;;;;2107099;28;20492;-81
2024/03/10 03:15:05;;;;;;;1.90;1.80;;;;;;;;;;2097828;28;20020;-81
2024/03/10 03:16:24;;;;;;;2.08;1.88;;;;;;;;;;2103956;28;20032;-81
2024/03/10 03:17:43;;;;;;;2.42;2.22;;;;;;;;;;2106104;28;20046;-79
2024/03/10 03:19:03;;;;;;;2.38;2.17;;;;;;;;;;2105967;28;20032;-81
2024/03/10 03:20:24;;;;;;;3.45;2.30;;;;;;;;;;2105611;28;20510;-77
2024/03/10 03:21:43;;;;;;;3.22;1.90;;;;;;;;;;2106352;28;20032;-80
2024/03/10 03:23:04;;;;;;;2.50;2.30;;;;;;;;;;2105762;28;20041;-81
2024/03/10 03:24:24;;;;;;;3.35;2.03;;;;;;;;;;2106236;28;20021;-81
2024/03/10 03:25:43;;;;;;;2.95;1.98;;;;;;;;;;2105115;28;20492;-80
2024/03/10 03:27:03;;;;;;;4.32;2.30;;;;;;;;;;2105562;28;20032;-81
2024/03/10 03:28:22;;;;;;;5.22;2.13;;;;;;;;;;2099201;28;20119;-81
2024/03/10 03:29:40;;;;;;;3.75;1.95;;;;;;;;;;2103417;28;20017;-81
2024/03/10 03:30:59;;;;;;;2.17;1.98;;;;;;;;;;2106887;28;20890;-82
2024/03/10 03:32:18;;;;;;;2.67;1.90;;;;;;;;;;2106054;28;20035;-82
2024/03/10 03:33:39;;;;;;;2.20;2.00;;;;;;;;;;2106586;28;20028;-82
2024/03/10 03:34:58;;;;;;;2.70;2.45;;;;;;;;;;2106091;28;20023;-81
2024/03/10 03:36:17;;;;;;;3.38;1.85;;;;;;;;;;2098623;28;20028;-81
2024/03/10 03:37:36;;;;;;;2.65;1.95;;;;;;;;;;2102797;28;20432;-81
2024/03/10 03:38:55;;;;;;;4.13;1.95;;;;;;;;;;2105684;28;20472;-81
2024/03/10 03:40:14;;;;;;;5.40;2.10;;;;;;;;;;2104845;28;20032;-82
2024/03/10 03:41:33;;;;;;;2.63;2.20;;;;;;;;;;2106069;28;20908;-80
2024/03/10 03:42:52;;;;;;;2.00;1.90;;;;;;;;;;2105472;28;20068;-83
2024/03/10 03:44:11;;;;;;;3.22;2.38;;;;;;;;;;2103589;28;20037;-82
2024/03/10 03:45:31;;;;;;;2.10;2.00;;;;;;;;;;2104712;28;20024;-79
2024/03/10 03:46:50;;;;;;;2.08;1.88;;;;;;;;;;2105422;28;20032;-81
2024/03/10 03:48:09;;;;;;;1.80;1.65;;;;;;;;;;2105364;28;20385;-82
2024/03/10 03:49:29;;;;;;;2.10;2.00;;;;;;;;;;2102911;28;20111;-81
2024/03/10 03:50:48;;;;;;;3.03;2.10;;;;;;;;;;2102078;28;20024;-82
2024/03/10 03:52:07;;;;;;;5.25;2.47;;;;;;;;;;2104572;28;20028;-83
2024/03/10 03:53:26;;;;;;;2.13;2.03;;;;;;;;;;2105833;28;20082;-82
2024/03/10 03:54:45;;;;;;;2.50;2.00;;;;;;;;;;2106270;28;20418;-82
2024/03/10 03:56:04;;;;;;;3.72;2.10;;;;;;;;;;2105371;28;20031;-80
2024/03/10 03:57:23;;;;;;;2.83;2.00;;;;;;;;;;2104501;28;20036;-75
2024/03/10 03:58:41;;;;;;;3.63;1.92;;;;;;;;;;2104789;28;20024;-74
2024/03/10 04:00:00;;;;;;;2.30;2.10;;;;;;;;;;2103889;28;20055;-74
2024/03/10 04:01:20;;;;;;;2.17;1.98;;;;;;;;;;2103536;28;20028;-76
2024/03/10 04:02:39;;;;;;;3.13;2.08;;;;;;;;;;2095714;28;20028;-74
2024/03/10 04:03:58;;;;;;;1.73;1.63;;;;;;;;;;2100900;28;20028;-76
2024/03/10 04:05:17;;;;;;;2.00;1.90;;;;;;;;;;2104324;28;20111;-75
2024/03/10 04:06:36;;;;;;;1.70;1.60;;;;;;;;;;2104482;28;20477;-74
2024/03/10 04:07:56;;;;;;;2.97;1.85;;;;;;;;;;2104678;28;20032;-75
2024/03/10 04:09:15;;;;;;;1.83;1.73;;;;;;;;;;2105440;28;20063;-75
2024/03/10 04:10:35;;;;;;;2.08;1.98;;;;;;;;;;2104440;28;20028;-74
2024/03/10 04:11:54;;;;;;;1.83;1.73;;;;;;;;;;2103003;28;20118;-74
2024/03/10 04:13:14;;;;;;;3.25;2.17;;;;;;;;;;2103733;28;20016;-74
2024/03/10 04:14:33;;;;;;;3.00;2.70;;;;;;;;;;2104745;28;20051;-74
2024/03/10 04:15:52;;;;;;;2.38;2.17;;;;;;;;;;2104819;28;20055;-76
2024/03/10 04:17:11;;;;;;;3.28;1.90;;;;;;;;;;2104092;28;20020;-75
2024/03/10 04:18:29;;;;;;;1.75;1.65;;;;;;;;;;2104337;28;20032;-74
2024/03/10 04:19:49;;;;;;;2.15;1.50;;;;;;;;;;2105254;28;20075;-75
2024/03/10 04:21:08;;;;;;;1.90;1.60;;;;;;;;;;2104657;28;20024;-75
2024/03/10 04:22:27;;;;;;;1.70;1.60;;;;;;;;;;2105002;28;20032;-75
2024/03/10 04:23:46;;;;;;;4.45;1.70;;;;;;;;;;2093890;28;20036;-74
2024/03/10 04:25:05;;;;;;;2.08;1.92;;;;;;;;;;2092061;28;20028;-75
2024/03/10 04:26:24;;;;;;;3.25;1.70;;;;;;;;;;2096025;28;20029;-74
2024/03/10 04:27:43;;;;;;;3.08;2.10;;;;;;;;;;2091817;28;20040;-74
2024/03/10 04:29:03;;;;;;;2.40;1.63;;;;;;;;;;2092867;28;20040;-74
2024/03/10 04:30:22;;;;;;;2.60;1.80;;;;;;;;;;2092124;28;20489;-74
2024/03/10 04:31:41;;;;;;;1.90;1.42;;;;;;;;;;2100844;28;20027;-74
2024/03/10 04:33:00;;;;;;;3.28;2.05;;;;;;;;;;2104369;28;20382;-75
2024/03/10 04:34:19;;;;;;;2.67;1.40;;;;;;;;;;2104065;28;20048;-75
2024/03/10 04:35:38;;;;;;;4.13;1.55;;;;;;;;;;2105081;28;20024;-77
2024/03/10 04:36:57;;;;;;;1.55;1.45;;;;;;;;;;2096196;28;20021;-75
2024/03/10 04:38:16;;;;;;;2.30;2.10;;;;;;;;;;2100611;28;20032;-74
2024/03/10 04:39:36;;;;;;;3.38;1.60;;;;;;;;;;2094178;28;20034;-74
2024/03/10 04:40:55;;;;;;;3.00;2.00;;;;;;;;;;2092484;28;20033;-75
2024/03/10 04:42:15;;;;;;;3.08;1.83;;;;;;;;;;2101461;28;20491;-76
2024/03/10 04:43:34;;;;;;;5.93;2.00;;;;;;;;;;2106125;28;20036;-74
2024/03/10 04:44:53;;;;;;;3.53;1.70;;;;;;;;;;2104855;28;20064;-74
2024/03/10 04:46:12;;;;;;;2.05;1.40;;;;;;;;;;2104893;28;20381;-75
2024/03/10 04:47:31;;;;;;;3.38;1.40;;;;;;;;;;2103954;28;20036;-73
2024/03/10 04:48:50;;;;;;;1.85;1.52;;;;;;;;;;2104677;28;20103;-76
2024/03/10 04:50:09;;;;;;;4.13;1.80;;;;;;;;;;2095869;28;20397;-73
2024/03/10 04:51:28;;;;;;;2.22;1.70;;;;;;;;;;2100053;28;20020;-75
2024/03/10 04:52:47;;;;;;;6.68;1.80;;;;;;;;;;2100319;28;20020;-74
2024/03/10 04:54:06;;;;;;;2.35;1.90;;;;;;;;;;2102769;28;20040;-75
2024/03/10 04:55:26;;;;;;;2.20;2.00;;;;;;;;;;2095911;28;20100;-74
2024/03/10 04:56:45;;;;;;;2.03;1.83;;;;;;;;;;2100880;28;20056;-75
2024/03/10 04:58:06;;;;;;;2.05;1.65;;;;;;;;;;2104501;28;20024;-74
2024/03/10 04:59:25;;;;;;;2.08;1.67;;;;;;;;;;2091240;28;20021;-74
2024/03/10 05:00:44;;;;;;;2.90;1.80;;;;;;;;;;2098501;28;20032;-74
2024/03/10 05:02:05;;;;;;;1.60;1.50;;;;;;;;;;2095984;28;20342;-74
2024/03/10 05:03:24;;;;;;;1.48;1.33;;;;;;;;;;2100194;28;20423;-75
2024/03/10 05:04:46;;;;;;;1.73;1.63;;;;;;;;;;2094683;28;20036;-75
2024/03/10 05:06:06;;;;;;;1.60;1.48;;;;;;;;;;2100272;28;20021;-75
2024/03/10 05:07:25;;;;;;;2.42;1.80;;;;;;;;;;2096431;28;20385;-80
2024/03/10 05:08:45;;;;;;;3.00;1.83;;;;;;;;;;2092694;28;20037;-80
2024/03/10 05:10:05;;;;;;;1.75;1.65;;;;;;;;;;2100774;28;20505;-80
2024/03/10 05:11:24;;;;;;;7.82;1.80;;;;;;;;;;2102836;28;20460;-80
2024/03/10 05:12:43;;;;;;;2.13;1.58;;;;;;;;;;2106715;28;20504;-81
2024/03/10 05:14:04;;;;;;;1.63;1.52;;;;;;;;;;2103597;28;20032;-81
2024/03/10 05:15:23;;;;;;;2.47;1.33;;;;;;;;;;2095336;28;20033;-80
2024/03/10 05:16:43;;;;;;;2.60;1.60;;;;;;;;;;2101757;28;20021;-81
2024/03/10 05:18:02;;;;;;;1.50;1.40;;;;;;;;;;2105820;28;20024;-80
2024/03/10 05:19:21;;;;;;;1.95;1.80;;;;;;;;;;2104983;28;20017;-81
2024/03/10 05:20:40;;;;;;;6.82;1.88;;;;;;;;;;2105287;28;20024;-80
2024/03/10 05:22:00;;;;;;;3.17;1.83;;;;;;;;;;2104123;28;20048;-81
2024/03/10 05:23:19;;;;;;;1.73;1.42;;;;;;;;;;2104611;28;20050;-81
2024/03/10 05:24:38;;;;;;;1.67;1.58;;;;;;;;;;2102302;28;20113;-80
2024/03/10 05:25:57;;;;;;;8.60;1.65;;;;;;;;;;2103881;28;20099;-80
2024/03/10 05:27:16;;;;;;;1.63;1.52;;;;;;;;;;2095258;28;20021;-81
2024/03/10 05:28:37;;;;;;;2.20;1.40;;;;;;;;;;2092722;28;20028;-79
2024/03/10 05:29:56;;;;;;;2.92;1.85;;;;;;;;;;2102107;28;20066;-83
2024/03/10 05:31:27;;;;;;;3.38;1.27;;;;;;;;;;2105990;28;20024;-81
2024/03/10 05:32:46;;;;;;;5.55;1.80;;;;;;;;;;2105074;28;20020;-80
2024/03/10 05:34:05;;;;;;;1.77;1.65;;;;;;;;;;2105056;28;20024;-81
2024/03/10 05:35:24;;;;;;;2.13;1.92;;;;;;;;;;2105280;28;20114;-80
2024/03/10 05:36:43;;;;;;;2.33;1.48;;;;;;;;;;2099533;28;20110;-81
2024/03/10 05:38:02;;;;;;;2.15;1.73;;;;;;;;;;2103255;28;20445;-80
2024/03/10 05:39:21;;;;;;;3.08;1.45;;;;;;;;;;2105439;28;20024;-81
2024/03/10 05:40:41;;;;;;;1.77;1.65;;;;;;;;;;2102005;28;20024;-80
2024/03/10 05:42:05;;;;;;;4.07;1.75;;;;;;;;;;2103724;28;20020;-80
2024/03/10 05:43:24;;;;;;;3.42;1.77;;;;;;;;;;2097216;28;20123;-79
2024/03/10 05:44:42;;;;;;;3.28;1.75;;;;;;;;;;2101228;28;20032;-80
2024/03/10 05:46:01;;;;;;;4.60;1.83;;;;;;;;;;2104615;28;20017;-80
2024/03/10 05:47:21;;;;;;;2.67;1.75;;;;;;;;;;2103891;28;20433;-80
2024/03/10 05:48:40;;;;;;;6.55;1.70;;;;;;;;;;2103898;28;20028;-79
2024/03/10 05:49:59;;;;;;;1.85;1.55;;;;;;;;;;2096619;28;20028;-79
2024/03/10 05:51:18;;;;;;;2.30;1.30;;;;;;;;;;2093494;28;20028;-79
2024/03/10 05:52:37;;;;;;;1.95;1.58;;;;;;;;;;2100806;28;20035;-80
2024/03/10 05:53:56;;;;;;;10.43;1.85;;;;;;;;;;2102076;28;20080;-79
2024/03/10 05:55:15;;;;;;;3.33;1.63;;;;;;;;;;2105288;28;20423;-79
2024/03/10 05:56:34;;;;;;;1.50;1.40;;;;;;;;;;2105365;28;20024;-77
2024/03/10 05:57:53;;;;;;;1.50;1.40;;;;;;;;;;2104008;28;20021;-79
2024/03/10 05:59:13;;;;;;;1.70;1.58;;;;;;;;;;2104154;28;20596;-78
2024/03/10 06:00:32;;;;;;;1.45;1.35;;;;;;;;;;2104236;28;20481;-78
2024/03/10 06:01:51;;;;;;;3.22;1.83;;;;;;;;;;2105651;28;20031;-79
2024/03/10 06:03:10;;;;;;;3.35;1.80;;;;;;;;;;2095303;28;20040;-79
2024/03/10 06:04:30;;;;;;;2.58;1.52;;;;;;;;;;2101063;28;20032;-78
2024/03/10 06:05:49;;;;;;;3.30;1.48;;;;;;;;;;2105384;28;20397;-78
2024/03/10 06:07:09;;;;;;;3.35;1.63;;;;;;;;;;2106646;28;20031;-78
2024/03/10 06:08:29;;;;;;;3.90;1.55;;;;;;;;;;2105884;28;20028;-78
2024/03/10 06:09:48;;;;;;;3.60;1.45;;;;;;;;;;2106871;28;20032;-80
2024/03/10 06:11:07;;;;;;;1.65;1.50;;;;;;;;;;2106770;28;20036;-78
2024/03/10 06:12:26;;;;;;;2.65;1.35;;;;;;;;;;2105223;28;20054;-78
2024/03/10 06:13:45;;;;;;;1.85;1.55;;;;;;;;;;2106517;28;20023;-80
2024/03/10 06:15:05;;;;;;;2.30;1.67;;;;;;;;;;2107082;28;20040;-78
2024/03/10 06:16:24;;;;;;;1.65;1.55;;;;;;;;;;2098124;28;20418;-80
2024/03/10 06:18:02;;;;;;;2.17;1.63;;;;;;;;;;2102834;28;20028;-76
2024/03/10 06:25:53;;;;;;;8.07;2.40;;;;;;;;;;2106261;28;20489;-76
2024/03/10 06:27:13;;;;;;;2.90;1.85;;;;;;;;;;2096112;28;20032;-76
2024/03/10 06:28:32;;;;;;;2.40;1.70;;;;;;;;;;2096246;28;20049;-74
2024/03/10 06:29:51;;;;;;;1.98;1.88;;;;;;;;;;2100994;28;20032;-74
2024/03/10 06:31:10;;;;;;;6.63;1.95;;;;;;;;;;2097514;28;20382;-73
2024/03/10 06:32:29;;;;;;;1.75;1.58;;;;;;;;;;2103287;28;20036;-76
2024/03/10 06:33:50;;;;;;;3.63;1.75;;;;;;;;;;2106397;28;20505;-74
2024/03/10 06:35:10;;;;;;;1.95;1.75;;;;;;;;;;2096714;28;20016;-74
2024/03/10 06:36:28;;;;;;;5.28;1.83;;;;;;;;;;2101948;28;20032;-76
2024/03/10 06:37:48;;;;;;;2.83;1.70;;;;;;;;;;2106257;28;20486;-74
2024/03/10 06:39:10;;;;;;;3.10;1.52;;;;;;;;;;2105189;28;20424;-73
2024/03/10 06:40:29;;;;;;;2.13;2.00;;;;;;;;;;2105263;28;20411;-73
2024/03/10 06:41:48;;;;;;;8.20;1.70;;;;;;;;;;2106090;28;20044;-75
2024/03/10 06:43:08;;;;;;;4.25;1.77;;;;;;;;;;2105438;28;20040;-73
2024/03/10 06:44:27;;;;;;;1.77;1.67;;;;;;;;;;2104406;28;20031;-75
2024/03/10 06:45:46;;;;;;;3.05;1.70;;;;;;;;;;2096366;28;20544;-75
2024/03/10 06:47:06;;;;;;;1.83;1.52;;;;;;;;;;2092853;28;20107;-75
2024/03/10 06:48:25;;;;;;;3.47;1.35;;;;;;;;;;2102313;28;20071;-75
2024/03/10 06:49:44;;;;;;;1.75;1.50;;;;;;;;;;2095643;28;20422;-76
2024/03/10 06:51:03;;;;;;;3.00;1.60;;;;;;;;;;2094021;28;20497;-74
2024/03/10 06:52:23;;;;;;;1.65;1.40;;;;;;;;;;2100737;28;20400;-74
2024/03/10 06:53:42;;;;;;;1.38;1.27;;;;;;;;;;2096885;28;20462;-74
2024/03/10 06:55:03;;;;;;;1.83;1.35;;;;;;;;;;2101479;28;20033;-74
2024/03/10 06:56:22;;;;;;;1.85;1.75;;;;;;;;;;2105599;28;20017;-75
2024/03/10 06:57:41;;;;;;;5.30;1.50;;;;;;;;;;2103429;28;20439;-75
2024/03/10 06:59:02;;;;;;;3.30;1.73;;;;;;;;;;2105363;28;20024;-75
2024/03/10 07:00:24;;;;;;;1.77;1.58;;;;;;;;;;2095903;28;20040;-74
2024/03/10 07:01:44;;;;;;;4.80;2.00;;;;;;;;;;2102146;28;20028;-74
2024/03/10 07:03:04;;;;;;;1.85;1.33;;;;;;;;;;2096560;28;20036;-74
2024/03/10 07:04:23;;;;;;;3.05;1.75;;;;;;;;;;2102872;28;20379;-74
2024/03/10 07:05:42;;;;;;;3.70;1.70;;;;;;;;;;2104823;28;20052;-74
2024/03/10 07:07:01;;;;;;;2.95;1.58;;;;;;;;;;2105247;28;20025;-74
2024/03/10 07:08:21;;;;;;;1.40;1.30;;;;;;;;;;2104960;28;20063;-74
2024/03/10 07:09:41;;;;;;;2.95;1.60;;;;;;;;;;2105751;28;20088;-74
2024/03/10 07:11:00;;;;;;;2.85;1.58;;;;;;;;;;2095860;28;20020;-75
2024/03/10 07:12:19;;;;;;;2.75;1.88;;;;;;;;;;2102672;28;20028;-75
2024/03/10 07:13:38;;;;;;;2.53;1.30;;;;;;;;;;2106020;28;20020;-74
2024/03/10 07:14:57;;;;;;;2.17;1.52;;;;;;;;;;2106080;28;20024;-74
2024/03/10 07:16:16;;;;;;;1.60;1.50;;;;;;;;;;2105262;28;20024;-75
2024/03/10 07:17:38;;;;;;;3.17;1.30;;;;;;;;;;2105307;28;20024;-75
2024/03/10 07:18:57;;;;;;;2.00;1.80;;;;;;;;;;2097024;28;20028;-75
2024/03/10 07:20:16;;;;;;;2.10;1.55;;;;;;;;;;2102990;28;20036;-77
2024/03/10 07:21:35;;;;;;;1.75;1.65;;;;;;;;;;2105491;28;20028;-75
2024/03/10 07:22:54;;;;;;;2.72;1.83;;;;;;;;;;2103685;28;20111;-77
2024/03/10 07:24:13;;;;;;;1.40;1.30;;;;;;;;;;2096678;28;20048;-76
2024/03/10 07:25:32;;;;;;;2.50;1.50;;;;;;;;;;2093382;28;20045;-77
2024/03/10 07:26:51;;;;;;;2.58;1.90;;;;;;;;;;2100073;28;20035;-77
2024/03/10 07:28:10;;;;;;;3.40;1.58;;;;;;;;;;2095094;28;20055;-77
2024/03/10 07:29:30;;;;;;;3.60;1.70;;;;;;;;;;2097705;28;20013;-77
2024/03/10 07:30:49;;;;;;;1.83;1.73;;;;;;;;;;2100856;28;20029;-78
2024/03/10 07:32:08;;;;;;;2.50;1.52;;;;;;;;;;2104970;28;20389;-78
2024/03/10 07:33:27;;;;;;;3.65;1.60;;;;;;;;;;2103989;28;20441;-78
2024/03/10 07:34:48;;;;;;;3.40;1.40;;;;;;;;;;2095022;28;20040;-79
2024/03/10 07:36:07;;;;;;;1.65;1.55;;;;;;;;;;2101652;28;20482;-78
2024/03/10 07:37:29;;;;;;;2.13;1.58;;;;;;;;;;2106557;28;20036;-78
2024/03/10 07:38:47;;;;;;;3.28;1.30;;;;;;;;;;2096194;28;20402;-79
2024/03/10 07:40:15;;;;;;;1.35;1.23;;;;;;;;;;2101194;28;20099;-79
2024/03/10 07:41:34;;;;;;;1.70;1.60;;;;;;;;;;2105203;28;20024;-78
2024/03/10 07:42:53;;;;;;;1.92;1.40;;;;;;;;;;2105937;28;20040;-77
2024/03/10 07:44:12;;;;;;;3.25;1.50;;;;;;;;;;2095087;28;20032;-76
2024/03/10 07:45:35;;;;;;;3.10;1.35;;;;;;;;;;2102650;28;20464;-77
2024/03/10 07:46:54;;;;;;;3.47;1.40;;;;;;;;;;2104838;28;20042;-77
2024/03/10 07:48:13;;;;;;;2.50;1.10;;;;;;;;;;2105545;28;20039;-76
2024/03/10 07:49:32;;;;;;;1.80;1.20;;;;;;;;;;2105717;28;20670;-79
2024/03/10 07:50:51;;;;;;;2.05;1.42;;;;;;;;;;2105058;28;20028;-76
2024/03/10 07:52:11;;;;;;;4.07;1.50;;;;;;;;;;2104397;28;20381;-76
2024/03/10 07:53:30;;;;;;;1.95;1.50;;;;;;;;;;2106326;28;20044;-78
2024/03/10 07:54:50;;;;;;;2.45;1.52;;;;;;;;;;2104630;28;20051;-78
2024/03/10 07:56:09;;;;;;;3.20;1.33;;;;;;;;;;2105823;28;20024;-79
2024/03/10 07:57:28;;;;;;;2.55;1.50;;;;;;;;;;2094836;28;20473;-79
2024/03/10 07:58:47;;;;;;;3.80;1.50;;;;;;;;;;2102428;28;20036;-79
2024/03/10 08:00:16;;;;;;;3.92;1.40;;;;;;;;;;2104801;28;20028;-78
2024/03/10 08:01:35;;;;;;;4.70;1.23;;;;;;;;;;2104846;28;20020;-78
2024/03/10 08:02:54;;;;;;;3.67;1.40;;;;;;;;;;2105392;28;20036;-78
2024/03/10 08:04:13;;;;;;;2.67;1.10;;;;;;;;;;2105184;28;20032;-78
2024/03/10 08:05:32;;;;;;;1.17;1.05;;;;;;;;;;2104440;28;20063;-77
2024/03/10 08:06:51;;;;;;;1.45;1.10;;;;;;;;;;2104363;28;20564;-81
2024/03/10 08:08:10;;;;;;;5.32;1.50;;;;;;;;;;2104964;28;20217;-79
2024/03/10 08:09:29;;;;;;;2.92;1.25;;;;;;;;;;2105041;28;20032;-79
2024/03/10 08:10:49;;;;;;;3.10;1.30;;;;;;;;;;2105053;28;20036;-80
2024/03/10 08:12:08;;;;;;;2.97;1.42;;;;;;;;;;2097115;28;20032;-77
2024/03/10 08:13:27;;;;;;;3.97;1.40;;;;;;;;;;2102009;28;20497;-78
2024/03/10 08:14:46;;;;;;;2.00;1.30;;;;;;;;;;2104475;28;20036;-79
2024/03/10 08:16:05;;;;;;;2.75;1.60;;;;;;;;;;2106680;28;20455;-77
2024/03/10 08:17:25;;;;;;;1.63;1.52;;;;;;;;;;2107249;28;20024;-81
2024/03/10 08:18:44;;;;;;;1.23;1.13;;;;;;;;;;2105919;28;20343;-79